createdAt,value
2019-04-26T00:02:44.013Z,0.80
2019-04-26T00:05:14.436Z,0.70
2019-04-26T00:07:43.808Z,0.60
2019-04-26T00:10:30.132Z,0.72
2019-04-26T00:13:12.399Z,0.70
2019-04-26T00:16:03.577Z,0.60
2019-04-26T00:18:32.644Z,0.82
2019-04-26T00:21:01.623Z,0.65
2019-04-26T00:23:30.781Z,0.60
2019-04-26T00:26:00.107Z,0.70
2019-04-26T00:28:29.117Z,0.78
2019-04-26T00:30:58.122Z,0.70
2019-04-26T00:33:27.054Z,0.72
2019-04-26T00:35:55.852Z,0.60
2019-04-26T00:38:24.738Z,0.60
2019-04-26T00:40:53.666Z,0.72
2019-04-26T00:43:22.705Z,0.60
2019-04-26T00:45:51.708Z,0.70
2019-04-26T00:48:21.091Z,0.70
2019-04-26T00:50:50.154Z,0.65
2019-04-26T00:53:19.645Z,0.50
2019-04-26T00:55:48.952Z,0.70
2019-04-26T00:58:18.724Z,0.82
2019-04-26T01:00:48.309Z,0.70
2019-04-26T01:03:17.292Z,0.80
2019-04-26T01:05:46.267Z,0.78
2019-04-26T01:08:15.812Z,0.60
2019-04-26T01:10:44.697Z,0.60
2019-04-26T01:13:13.560Z,0.70
2019-04-26T01:15:42.368Z,1.00
2019-04-26T01:18:11.240Z,0.72
2019-04-26T01:20:40.318Z,0.78
2019-04-26T01:23:09.324Z,0.78
2019-04-26T01:25:45.903Z,0.85
2019-04-26T01:28:19.695Z,0.82
2019-04-26T01:30:48.784Z,0.60
2019-04-26T01:33:20.131Z,0.80
2019-04-26T01:35:49.368Z,0.70
2019-04-26T01:38:19.245Z,0.70
2019-04-26T01:40:51.653Z,0.60
2019-04-26T01:43:27.225Z,0.75
2019-04-26T01:46:10.849Z,0.80
2019-04-26T01:48:48.427Z,0.70
2019-04-26T01:51:28.679Z,0.70
2019-04-26T01:56:29.311Z,0.80
2019-04-26T01:58:58.194Z,0.78
2019-04-26T02:01:37.959Z,0.60
2019-04-26T02:04:06.889Z,0.90
2019-04-26T02:06:35.793Z,0.82
2019-04-26T02:09:07.358Z,0.80
2019-04-26T02:11:36.637Z,0.70
2019-04-26T02:14:05.626Z,0.60
2019-04-26T02:16:34.585Z,0.68
2019-04-26T02:19:03.601Z,0.70
2019-04-26T02:21:37.871Z,0.78
2019-04-26T02:24:13.036Z,0.82
2019-04-26T02:26:43.512Z,0.70
2019-04-26T02:29:14.554Z,0.90
2019-04-26T02:31:44.303Z,0.70
2019-04-26T02:34:13.642Z,0.70
2019-04-26T02:36:57.217Z,0.70
2019-04-26T02:39:37.139Z,0.60
2019-04-26T02:42:06.709Z,0.78
2019-04-26T02:44:50.587Z,0.88
2019-04-26T02:47:43.226Z,0.80
2019-04-26T02:50:18.088Z,0.85
2019-04-26T02:53:09.110Z,0.80
2019-04-26T02:56:13.806Z,0.80
2019-04-26T02:59:37.717Z,0.90
2019-04-26T03:02:06.878Z,0.90
2019-04-26T03:04:38.013Z,0.85
2019-04-26T03:07:18.062Z,0.85
2019-04-26T03:09:46.988Z,0.90
2019-04-26T03:12:16.345Z,0.80
2019-04-26T03:15:13.580Z,0.83
2019-04-26T03:17:50.646Z,0.70
2019-04-26T03:20:23.769Z,0.90
2019-04-26T03:23:02.268Z,0.90
2019-04-26T03:25:45.600Z,0.65
2019-04-26T03:28:39.534Z,1.00
2019-04-26T03:31:25.053Z,0.90
2019-04-26T03:34:27.279Z,0.90
2019-04-26T03:37:20.804Z,0.80
2019-04-26T03:40:09.999Z,0.88
2019-04-26T03:42:52.989Z,0.93
2019-04-26T03:45:39.080Z,0.98
2019-04-26T03:48:18.258Z,0.95
2019-04-26T03:50:56.067Z,0.80
2019-04-26T03:53:53.042Z,0.90
2019-04-26T03:57:04.153Z,0.90
2019-04-26T03:59:49.135Z,1.00
2019-04-26T04:02:40.904Z,1.20
2019-04-26T04:05:24.072Z,0.95
2019-04-26T04:07:53.325Z,1.10
2019-04-26T04:10:26.776Z,0.80
2019-04-26T04:13:12.149Z,1.10
2019-04-26T04:15:46.712Z,1.00
2019-04-26T04:18:21.448Z,1.00
2019-04-26T04:21:18.466Z,1.92
2019-04-26T04:24:17.340Z,1.32
2019-04-26T04:27:00.638Z,1.00
2019-04-26T04:29:55.249Z,1.00
2019-04-26T04:32:31.003Z,0.90
2019-04-26T04:35:01.660Z,1.25
2019-04-26T04:37:34.322Z,1.70
2019-04-26T04:40:27.029Z,2.33
2019-04-26T04:43:22.122Z,1.82
2019-04-26T04:47:03.408Z,1.32
2019-04-26T04:50:00.012Z,1.55
2019-04-26T04:52:44.533Z,2.10
2019-04-26T04:55:43.502Z,2.50
2019-04-26T04:58:18.504Z,2.05
2019-04-26T05:01:26.159Z,1.87
2019-04-26T05:04:07.631Z,1.80
2019-04-26T05:07:23.794Z,1.72
2019-04-26T05:10:03.805Z,2.45
2019-04-26T05:12:41.649Z,2.52
2019-04-26T05:15:44.558Z,2.15
2019-04-26T05:18:32.565Z,2.00
2019-04-26T05:21:17.426Z,2.00
2019-04-26T05:24:29.071Z,2.45
2019-04-26T05:27:17.828Z,2.45
2019-04-26T05:30:33.646Z,2.00
2019-04-26T05:33:31.307Z,9.23
2019-04-26T05:36:21.049Z,14.05
2019-04-26T05:39:07.277Z,15.15
2019-04-26T05:42:32.108Z,14.23
2019-04-26T05:46:02.287Z,14.28
2019-04-26T05:48:58.764Z,11.40
2019-04-26T05:52:07.115Z,12.85
2019-04-26T05:55:08.688Z,11.65
2019-04-26T05:58:03.351Z,11.48
2019-04-26T06:02:05.373Z,9.95
2019-04-26T06:05:03.191Z,16.40
2019-04-26T06:10:56.504Z,15.63
2019-04-26T06:13:58.425Z,20.82
2019-04-26T06:16:54.801Z,17.12
2019-04-26T06:19:48.207Z,17.65
2019-04-26T06:22:25.879Z,17.50
2019-04-26T06:25:07.248Z,17.25
2019-04-26T06:27:52.128Z,17.07
2019-04-26T06:30:57.301Z,17.17
2019-04-26T06:33:39.221Z,16.50
2019-04-26T06:36:13.163Z,17.77
2019-04-26T06:39:31.851Z,19.15
2019-04-26T06:42:29.327Z,17.05
2019-04-26T06:45:37.855Z,18.77
2019-04-26T06:48:16.481Z,16.93
2019-04-26T06:50:52.842Z,16.50
2019-04-26T06:53:51.975Z,15.83
2019-04-26T06:56:57.413Z,14.35
2019-04-26T06:59:43.375Z,14.50
2019-04-26T07:02:19.975Z,14.20
2019-04-26T07:05:23.201Z,12.58
2019-04-26T07:08:26.398Z,13.15
2019-04-26T07:11:45.000Z,11.90
2019-04-26T07:14:46.051Z,11.25
2019-04-26T07:17:17.423Z,10.58
2019-04-26T07:20:16.817Z,13.98
2019-04-26T07:23:13.485Z,16.57
2019-04-26T07:26:19.447Z,17.45
2019-04-26T07:29:30.448Z,16.07
2019-04-26T07:32:21.338Z,15.58
2019-04-26T07:35:19.670Z,14.80
2019-04-26T07:38:16.333Z,14.18
2019-04-26T07:41:29.891Z,13.03
2019-04-26T07:44:51.453Z,13.90
2019-04-26T07:47:36.612Z,11.65
2019-04-26T07:50:36.865Z,9.50
2019-04-26T07:53:36.246Z,8.75
2019-04-26T07:56:36.426Z,7.90
2019-04-26T07:59:52.499Z,7.62
2019-04-26T08:02:51.071Z,6.80
2019-04-26T08:05:32.492Z,6.05
2019-04-26T08:08:05.876Z,5.35
2019-04-26T08:10:37.686Z,5.10
2019-04-26T08:13:08.170Z,5.62
2019-04-26T08:15:48.418Z,5.30
2019-04-26T08:20:52.266Z,9.85
2019-04-26T08:23:41.035Z,9.83
2019-04-26T08:26:01.755Z,7.37
2019-04-26T08:28:31.722Z,6.53
2019-04-26T08:31:01.601Z,6.03
2019-04-26T08:33:35.687Z,4.83
2019-04-26T08:36:04.714Z,4.33
2019-04-26T08:38:34.347Z,4.30
2019-04-26T08:41:04.984Z,4.50
2019-04-26T08:44:03.738Z,4.55
2019-04-26T08:46:50.635Z,3.90
2019-04-26T08:49:39.098Z,3.98
2019-04-26T08:52:14.397Z,3.62
2019-04-26T08:54:43.320Z,3.22
2019-04-26T08:57:22.173Z,3.30
2019-04-26T08:59:54.175Z,3.20
2019-04-26T09:02:45.616Z,4.00
2019-04-26T09:05:37.307Z,3.20
2019-04-26T09:08:06.500Z,2.95
2019-04-26T09:10:35.555Z,3.00
2019-04-26T09:13:04.545Z,2.92
2019-04-26T09:15:58.923Z,2.67
2019-04-26T09:18:27.948Z,2.87
2019-04-26T09:20:57.033Z,2.45
2019-04-26T09:23:56.713Z,3.15
2019-04-26T09:26:46.611Z,2.65
2019-04-26T09:29:30.207Z,2.42
2019-04-26T09:32:08.663Z,2.85
2019-04-26T09:37:07.689Z,1.95
2019-04-26T09:39:36.657Z,2.30
2019-04-26T09:42:12.938Z,2.00
2019-04-26T09:44:47.098Z,2.30
2019-04-26T09:47:24.246Z,2.27
2019-04-26T09:50:14.938Z,2.20
2019-04-26T09:52:45.742Z,2.20
2019-04-26T09:55:14.708Z,2.22
2019-04-26T09:57:43.826Z,2.20
2019-04-26T10:00:15.395Z,2.00
2019-04-26T10:02:44.518Z,2.20
2019-04-26T10:05:13.630Z,2.05
2019-04-26T10:07:42.818Z,2.00
2019-04-26T10:10:22.343Z,2.25
2019-04-26T10:12:53.630Z,2.00
2019-04-26T10:15:35.450Z,1.82
2019-04-26T10:18:04.570Z,1.92
2019-04-26T10:20:33.569Z,2.05
2019-04-26T10:23:02.435Z,1.90
2019-04-26T10:25:31.506Z,2.10
2019-04-26T10:28:00.440Z,1.87
2019-04-26T10:30:29.346Z,2.12
2019-04-26T10:33:02.082Z,1.95
2019-04-26T10:35:28.983Z,1.70
2019-04-26T10:37:57.990Z,1.87
2019-04-26T10:40:35.396Z,1.98
2019-04-26T10:42:57.696Z,1.85
2019-04-26T10:45:27.924Z,2.12
2019-04-26T10:50:28.730Z,1.62
2019-04-26T10:53:07.988Z,1.80
2019-04-26T10:55:54.911Z,1.90
2019-04-26T10:58:38.065Z,1.62
2019-04-26T11:01:26.302Z,1.92
2019-04-26T11:04:14.328Z,1.80
2019-04-26T11:06:43.165Z,1.50
2019-04-26T11:09:12.079Z,1.95
2019-04-26T11:11:41.147Z,2.17
2019-04-26T11:14:10.175Z,1.80
2019-04-26T11:16:41.151Z,1.80
2019-04-26T11:19:10.222Z,1.72
2019-04-26T11:21:39.150Z,1.75
2019-04-26T11:24:08.231Z,1.77
2019-04-26T11:26:37.162Z,1.80
2019-04-26T11:29:06.208Z,1.80
2019-04-26T11:31:35.179Z,1.50
2019-04-26T11:36:37.691Z,1.67
2019-04-26T11:39:08.181Z,1.80
2019-04-26T11:40:14.088Z,1.70
2019-04-26T11:41:37.895Z,1.70
2019-04-26T11:44:08.110Z,1.70
2019-04-26T11:46:44.675Z,1.60
2019-04-26T11:49:08.309Z,1.72
2019-04-26T11:51:37.322Z,1.90
2019-04-26T11:54:06.292Z,1.65
2019-04-26T11:56:37.532Z,1.72
2019-04-26T11:59:06.173Z,1.75
2019-04-26T12:01:36.670Z,1.90
2019-04-26T12:04:12.458Z,1.95
2019-04-26T12:07:01.420Z,1.70
2019-04-26T12:09:38.444Z,1.87
2019-04-26T12:12:09.330Z,1.50
2019-04-26T12:14:39.122Z,1.62
2019-04-26T12:17:07.992Z,1.72
2019-04-26T12:19:36.879Z,1.80
2019-04-26T12:22:08.439Z,1.50
2019-04-26T12:24:37.326Z,1.60
2019-04-26T12:27:06.589Z,1.70
2019-04-26T12:29:36.967Z,1.70
2019-04-26T12:32:05.891Z,1.50
2019-04-26T12:34:34.953Z,1.75
2019-04-26T12:37:03.809Z,1.42
2019-04-26T12:39:36.810Z,1.50
2019-04-26T12:42:04.470Z,1.62
2019-04-26T12:44:41.369Z,1.50
2019-04-26T12:47:15.495Z,1.90
2019-04-26T12:49:44.317Z,1.82
2019-04-26T12:52:13.384Z,1.50
2019-04-26T12:54:42.956Z,1.50
2019-04-26T12:57:16.116Z,1.80
2019-04-26T12:59:44.647Z,1.40
2019-04-26T13:02:16.540Z,1.70
2019-04-26T13:04:44.745Z,1.35
2019-04-26T13:07:23.794Z,1.50
2019-04-26T13:10:07.169Z,1.70
2019-04-26T13:13:01.303Z,1.87
2019-04-26T13:15:51.874Z,1.90
2019-04-26T13:18:20.858Z,1.57
2019-04-26T13:20:49.882Z,1.72
2019-04-26T13:23:18.813Z,1.70
2019-04-26T13:25:47.686Z,1.90
2019-04-26T13:28:20.374Z,1.60
2019-04-26T13:30:47.595Z,1.60
2019-04-26T13:33:16.576Z,1.60
2019-04-26T13:36:01.934Z,1.70
2019-04-26T13:38:16.167Z,1.77
2019-04-26T13:40:45.005Z,1.67
2019-04-26T13:43:14.013Z,1.98
2019-04-26T13:46:04.853Z,1.80
2019-04-26T13:49:07.831Z,1.92
2019-04-26T13:51:36.941Z,1.95
2019-04-26T13:54:05.830Z,2.12
2019-04-26T13:56:35.906Z,2.00
2019-04-26T13:59:05.978Z,1.80
2019-04-26T14:01:35.054Z,2.00
2019-04-26T14:04:06.744Z,2.00
2019-04-26T14:06:34.508Z,2.10
2019-04-26T14:09:03.983Z,2.30
2019-04-26T14:11:33.043Z,2.70
2019-04-26T14:14:02.013Z,2.30
2019-04-26T14:16:31.024Z,2.40
2019-04-26T14:19:00.003Z,2.35
2019-04-26T14:21:33.016Z,2.70
2019-04-26T14:24:19.500Z,2.50
2019-04-26T14:26:51.776Z,2.47
2019-04-26T14:29:21.142Z,2.75
2019-04-26T14:31:52.952Z,3.10
2019-04-26T14:34:21.563Z,2.72
2019-04-26T14:36:50.483Z,3.17
2019-04-26T14:39:20.987Z,3.20
2019-04-26T14:41:52.795Z,3.05
2019-04-26T14:44:20.870Z,3.35
2019-04-26T14:46:53.253Z,3.40
2019-04-26T14:49:23.328Z,3.27
2019-04-26T14:51:55.866Z,3.20
2019-04-26T14:54:22.204Z,3.50
2019-04-26T14:56:52.307Z,3.40
2019-04-26T14:59:43.481Z,4.72
2019-04-26T15:02:29.392Z,4.12
2019-04-26T15:05:20.200Z,3.83
2019-04-26T15:07:51.494Z,3.83
2019-04-26T15:10:22.694Z,3.98
2019-04-26T15:12:58.510Z,4.80
2019-04-26T15:15:22.452Z,4.37
2019-04-26T15:17:55.075Z,4.78
2019-04-26T15:20:24.297Z,4.83
2019-04-26T15:22:52.982Z,5.25
2019-04-26T15:25:22.454Z,5.30
2019-04-26T15:27:52.439Z,5.75
2019-04-26T15:30:22.300Z,5.90
2019-04-26T15:32:52.904Z,5.92
2019-04-26T15:35:23.242Z,7.60
2019-04-26T15:40:39.613Z,6.45
2019-04-26T15:43:20.830Z,6.60
2019-04-26T15:45:58.439Z,7.55
2019-04-26T15:48:54.488Z,9.05
2019-04-26T15:51:27.162Z,9.20
2019-04-26T15:53:55.138Z,7.95
2019-04-26T15:56:24.789Z,7.37
2019-04-26T15:58:53.703Z,8.50
2019-04-26T16:01:22.623Z,9.80
2019-04-26T16:03:53.086Z,8.50
2019-04-26T16:06:23.653Z,9.28
2019-04-26T16:08:52.585Z,8.70
2019-04-26T16:11:21.899Z,8.78
2019-04-26T16:13:55.058Z,9.90
2019-04-26T16:16:27.934Z,10.00
2019-04-26T16:18:55.534Z,9.30
2019-04-26T16:21:23.161Z,9.78
2019-04-26T16:23:55.337Z,9.70
2019-04-26T16:26:23.637Z,10.08
2019-04-26T16:29:18.368Z,9.77
2019-04-26T16:31:57.337Z,12.23
2019-04-26T16:34:26.748Z,11.88
2019-04-26T16:36:55.946Z,13.33
2019-04-26T16:39:32.294Z,12.15
2019-04-26T16:41:55.560Z,13.03
2019-04-26T16:44:29.487Z,12.37
2019-04-26T16:47:01.258Z,11.38
2019-04-26T16:49:25.748Z,11.05
2019-04-26T16:52:01.998Z,10.55
2019-04-26T16:54:44.737Z,12.03
2019-04-26T16:57:13.799Z,12.78
2019-04-26T16:59:49.032Z,12.10
2019-04-26T17:02:16.156Z,11.48
2019-04-26T17:04:44.299Z,12.58
2019-04-26T17:07:13.871Z,13.83
2019-04-26T17:09:59.628Z,12.50
2019-04-26T17:12:14.831Z,12.35
2019-04-26T17:14:47.731Z,12.85
2019-04-26T17:17:15.053Z,13.53
2019-04-26T17:19:43.893Z,13.75
2019-04-26T17:22:23.228Z,14.25
2019-04-26T17:25:09.861Z,12.30
2019-04-26T17:27:40.221Z,13.62
2019-04-26T17:30:13.071Z,12.93
2019-04-26T17:32:42.229Z,12.53
2019-04-26T17:35:12.721Z,13.30
2019-04-26T17:37:41.632Z,11.88
2019-04-26T17:40:10.643Z,14.18
2019-04-26T17:42:40.798Z,13.50
2019-04-26T17:47:41.818Z,13.50
2019-04-26T17:50:10.958Z,13.22
2019-04-26T17:52:40.887Z,12.73
2019-04-26T17:55:11.927Z,12.13
2019-04-26T17:57:47.898Z,12.20
2019-04-26T18:00:15.392Z,13.48
2019-04-26T18:02:47.983Z,13.90
2019-04-26T18:05:13.563Z,11.85
2019-04-26T18:07:50.260Z,13.95
2019-04-26T18:10:13.525Z,12.70
2019-04-26T18:12:44.169Z,12.53
2019-04-26T18:15:17.273Z,13.32
2019-04-26T18:18:04.040Z,13.60
2019-04-26T18:20:57.115Z,12.28
2019-04-26T18:23:26.221Z,12.75
2019-04-26T18:25:55.180Z,12.80
2019-04-26T18:28:24.237Z,13.15
2019-04-26T18:30:53.454Z,13.00
2019-04-26T18:33:43.180Z,13.10
2019-04-26T18:36:31.906Z,13.28
2019-04-26T18:39:03.742Z,12.55
2019-04-26T18:41:33.961Z,12.00
2019-04-26T18:44:03.244Z,11.90
2019-04-26T18:46:47.148Z,12.45
2019-04-26T18:49:18.324Z,12.47
2019-04-26T18:51:48.348Z,13.50
2019-04-26T18:54:35.588Z,12.30
2019-04-26T18:57:04.771Z,11.90
2019-04-26T18:59:34.149Z,10.65
2019-04-26T19:02:03.995Z,11.60
2019-04-26T19:04:33.638Z,10.82
2019-04-26T19:07:02.871Z,12.25
2019-04-26T19:09:45.254Z,10.95
2019-04-26T19:12:02.725Z,12.85
2019-04-26T19:15:03.052Z,11.45
2019-04-26T19:17:47.052Z,10.93
2019-04-26T19:20:37.869Z,12.23
2019-04-26T19:23:08.617Z,11.80
2019-04-26T19:25:40.868Z,11.80
2019-04-26T19:28:08.473Z,11.10
2019-04-26T19:30:40.089Z,12.18
2019-04-26T19:33:11.532Z,11.65
2019-04-26T19:35:43.141Z,12.90
2019-04-26T19:38:13.338Z,12.43
2019-04-26T19:40:46.085Z,12.63
2019-04-26T19:43:12.621Z,11.88
2019-04-26T19:46:04.565Z,12.80
2019-04-26T19:48:55.364Z,12.80
2019-04-26T19:51:45.440Z,12.47
2019-04-26T19:54:31.365Z,12.85
2019-04-26T19:57:03.685Z,13.18
2019-04-26T19:59:34.473Z,12.58
2019-04-26T20:02:02.358Z,12.25
2019-04-26T20:04:34.074Z,11.95
2019-04-26T20:07:02.296Z,12.85
2019-04-26T20:09:31.922Z,11.68
2019-04-26T20:12:02.610Z,11.83
2019-04-26T20:14:44.931Z,11.43
2019-04-26T20:17:02.559Z,10.53
2019-04-26T20:19:37.022Z,12.15
2019-04-26T20:22:03.629Z,11.48
2019-04-26T20:24:32.705Z,11.68
2019-04-26T20:27:03.551Z,11.83
2019-04-26T20:29:32.821Z,11.50
2019-04-26T20:32:12.497Z,11.50
2019-04-26T20:34:45.260Z,10.93
2019-04-26T20:37:16.232Z,12.45
2019-04-26T20:39:45.202Z,11.43
2019-04-26T20:42:14.408Z,11.40
2019-04-26T20:44:50.448Z,11.55
2019-04-26T20:47:17.486Z,11.45
2019-04-26T20:49:49.673Z,11.35
2019-04-26T20:52:20.787Z,10.82
2019-04-26T20:54:51.107Z,10.98
2019-04-26T20:57:17.864Z,10.43
2019-04-26T20:59:46.818Z,10.75
2019-04-26T21:02:16.244Z,10.00
2019-04-26T21:04:46.659Z,10.80
2019-04-26T21:07:15.763Z,10.93
2019-04-26T21:09:44.603Z,12.00
2019-04-26T21:12:17.274Z,11.05
2019-04-26T21:14:45.633Z,11.83
2019-04-26T21:17:14.908Z,10.30
2019-04-26T21:19:43.952Z,10.50
2019-04-26T21:22:12.996Z,11.28
2019-04-26T21:24:43.667Z,13.00
2019-04-26T21:27:31.790Z,11.08
2019-04-26T21:30:08.104Z,11.65
2019-04-26T21:32:59.389Z,11.03
2019-04-26T21:35:34.237Z,10.53
2019-04-26T21:38:07.425Z,11.22
2019-04-26T21:40:41.550Z,11.53
2019-04-26T21:43:10.472Z,9.88
2019-04-26T21:45:39.409Z,11.08
2019-04-26T21:48:28.994Z,10.50
2019-04-26T21:50:57.874Z,10.55
2019-04-26T21:53:29.676Z,10.82
2019-04-26T21:55:57.453Z,10.55
2019-04-26T21:58:26.612Z,11.60
2019-04-26T22:01:15.746Z,11.10
2019-04-26T22:03:47.474Z,9.88
2019-04-26T22:06:14.658Z,11.83
2019-04-26T22:08:57.305Z,10.75
2019-04-26T22:11:23.312Z,10.60
2019-04-26T22:14:00.698Z,10.40
2019-04-26T22:16:38.286Z,9.93
2019-04-26T22:19:35.345Z,10.13
2019-04-26T22:22:23.194Z,11.12
2019-04-26T22:24:53.142Z,11.05
2019-04-26T22:27:25.318Z,10.08
2019-04-26T22:29:55.110Z,11.00
2019-04-26T22:32:24.133Z,9.58
2019-04-26T22:34:53.929Z,9.95
2019-04-26T22:37:29.610Z,10.38
2019-04-26T22:39:54.341Z,10.40
2019-04-26T22:42:23.990Z,11.38
2019-04-26T22:45:03.326Z,9.98
2019-04-26T22:47:43.770Z,10.70
2019-04-26T22:50:15.656Z,10.48
2019-04-26T22:52:46.710Z,10.43
2019-04-26T22:55:17.594Z,9.75
2019-04-26T22:57:45.358Z,9.38
2019-04-26T23:00:20.107Z,11.33
2019-04-26T23:02:47.539Z,10.75
2019-04-26T23:05:16.470Z,10.78
2019-04-26T23:07:45.513Z,11.10
2019-04-26T23:10:15.342Z,9.78
2019-04-26T23:13:04.456Z,10.28
2019-04-26T23:15:51.592Z,9.58
2019-04-26T23:18:38.736Z,8.90
2019-04-26T23:21:15.108Z,9.15
2019-04-26T23:23:44.362Z,9.78
2019-04-26T23:26:14.420Z,9.85
2019-04-26T23:28:43.658Z,10.10
2019-04-26T23:31:13.436Z,11.10
2019-04-26T23:33:42.988Z,9.88
2019-04-26T23:36:13.611Z,10.00
2019-04-26T23:38:43.908Z,9.75
2019-04-26T23:41:14.244Z,9.88
2019-04-26T23:46:14.385Z,10.23
2019-04-26T23:48:48.491Z,9.80
2019-04-26T23:51:13.222Z,9.53
2019-04-26T23:53:42.891Z,9.83
2019-04-26T23:56:16.165Z,10.58
2019-04-26T23:58:44.130Z,9.90
